Time;durP1;ratioP1;P1;durP2;ratioP2;P2;SDS_P1;SDS_P2;PMS_P1;PMS_P2;Temp;Humidity;BMP_temperature;BMP_pressure;BME280_temperature;BME280_humidity;BME280_pressure;Samples;Min_cycle;Max_cycle;Signal;HPM_P1;HPM_P2
2022/11/15 00:00:53;;;;;;;3.83;3.47;;;16.40;65.70;17.50;100136.00;;;;5009515;28;20198;-54
2022/11/15 00:03:24;;;;;;;4.33;3.20;;;16.40;65.80;17.50;100133.00;;;;5010051;28;20677;-50
2022/11/15 00:05:50;;;;;;;3.47;3.17;;;16.40;65.80;17.50;100147.00;;;;5013225;28;20189;-50
2022/11/15 00:08:16;;;;;;;3.27;2.90;;;16.40;65.70;17.50;100138.00;;;;4991821;28;20167;-52
2022/11/15 00:10:42;;;;;;;3.97;3.37;;;16.40;65.90;17.50;100128.00;;;;5009140;28;20471;-50
2022/11/15 00:13:11;;;;;;;5.13;3.20;;;16.30;65.70;17.50;100134.00;;;;5009176;28;20172;-51
2022/11/15 00:15:38;;;;;;;3.50;3.20;;;16.40;65.80;17.50;100137.00;;;;5009002;28;20198;-51
2022/11/15 00:18:04;;;;;;;3.50;3.20;;;16.30;65.70;17.50;100128.00;;;;4991463;28;20262;-51
2022/11/15 00:20:30;;;;;;;3.20;2.90;;;16.30;65.80;17.40;100128.00;;;;5008895;28;20182;-51
2022/11/15 00:22:56;;;;;;;3.77;3.40;;;16.40;65.90;17.50;100129.00;;;;4991024;28;20191;-52
2022/11/15 00:25:22;;;;;;;3.73;3.43;;;16.30;65.80;17.50;100135.00;;;;5008863;28;20193;-52
2022/11/15 00:27:47;;;;;;;3.50;3.20;;;16.30;65.80;17.50;100141.00;;;;5008747;28;20182;-52
2022/11/15 00:30:13;;;;;;;3.40;3.10;;;16.30;65.80;17.40;100134.00;;;;5008689;28;20179;-52
2022/11/15 00:32:39;;;;;;;3.13;2.93;;;16.30;65.90;17.40;100138.00;;;;5008261;28;20191;-53
2022/11/15 00:35:05;;;;;;;4.17;3.60;;;16.30;65.80;17.40;100137.00;;;;5008567;28;20270;-51
2022/11/15 00:37:30;;;;;;;4.70;3.53;;;16.30;65.90;17.40;100127.00;;;;5008726;28;20187;-50
2022/11/15 00:39:56;;;;;;;3.50;3.20;;;16.30;66.00;17.40;100124.00;;;;5008397;28;20169;-52
2022/11/15 00:42:22;;;;;;;4.40;3.10;;;16.20;66.00;17.40;100140.00;;;;5008304;28;20546;-52
2022/11/15 00:44:48;;;;;;;3.50;3.20;;;16.30;66.10;17.40;100130.00;;;;4990567;28;20262;-52
2022/11/15 00:47:13;;;;;;;3.83;3.43;;;16.30;66.10;17.40;100139.00;;;;5008129;28;20234;-54
2022/11/15 00:49:40;;;;;;;3.73;3.33;;;16.20;66.00;17.40;100135.00;;;;5008434;28;20264;-52
2022/11/15 00:52:06;;;;;;;3.40;3.10;;;16.20;66.00;17.30;100134.00;;;;5008294;28;20247;-52
2022/11/15 00:54:32;;;;;;;3.80;3.37;;;16.30;66.10;17.30;100140.00;;;;5008453;28;20203;-52
2022/11/15 00:56:57;;;;;;;3.60;3.30;;;16.20;66.90;17.30;100129.00;;;;5009026;28;20176;-52
2022/11/15 00:59:23;;;;;;;3.63;3.33;;;16.20;66.20;17.30;100131.00;;;;5008560;28;20175;-52
2022/11/15 01:01:49;;;;;;;3.53;3.23;;;16.20;66.20;17.30;100128.00;;;;5008371;28;20176;-55
2022/11/15 01:04:14;;;;;;;3.43;3.13;;;16.20;66.20;17.30;100134.00;;;;5008205;28;20293;-50
2022/11/15 01:06:40;;;;;;;3.40;3.10;;;16.20;66.30;17.30;100133.00;;;;5008765;28;20201;-52
2022/11/15 01:09:06;;;;;;;3.53;3.23;;;16.20;66.40;17.30;100116.00;;;;5008360;28;20649;-50
2022/11/15 01:11:32;;;;;;;3.40;3.10;;;16.20;66.40;17.30;100121.00;;;;5008071;28;20163;-52
2022/11/15 01:13:57;;;;;;;3.43;3.13;;;16.20;66.30;17.30;100118.00;;;;5007960;28;20198;-51
2022/11/15 01:16:23;;;;;;;3.90;3.20;;;16.20;66.40;17.00;100111.00;;;;5007891;28;20249;-52
2022/11/15 01:18:49;;;;;;;3.70;3.40;;;16.20;66.40;17.30;100125.00;;;;5007980;28;20183;-53
2022/11/15 01:21:17;;;;;;;3.30;3.00;;;16.20;66.40;17.30;100116.00;;;;4990403;28;20593;-51
2022/11/15 01:23:43;;;;;;;3.57;3.27;;;16.20;66.50;17.30;100115.00;;;;4990401;28;20654;-50
2022/11/15 01:26:12;;;;;;;3.60;3.30;;;16.20;66.50;17.30;100103.00;;;;5008264;28;20465;-50
2022/11/15 01:28:39;;;;;;;3.40;3.10;;;16.20;66.50;17.30;100108.00;;;;5007892;28;20655;-52
2022/11/15 01:31:08;;;;;;;3.67;3.37;;;16.10;66.40;17.30;100112.00;;;;4974075;28;20170;-52
2022/11/15 01:33:36;;;;;;;3.90;3.40;;;16.10;66.50;17.30;100121.00;;;;5008027;28;20168;-50
2022/11/15 01:36:07;;;;;;;3.53;3.23;;;16.10;66.50;17.20;100115.00;;;;4974755;28;20175;-51
2022/11/15 01:38:33;;;;;;;3.83;3.40;;;16.10;66.60;17.30;100109.00;;;;4990440;28;20206;-49
2022/11/15 01:40:58;;;;;;;4.67;3.30;;;16.20;66.60;17.30;100108.00;;;;5008098;28;20282;-51
2022/11/15 01:43:30;;;;;;;3.70;3.40;;;16.10;66.50;17.20;100115.00;;;;5007986;28;20191;-53
2022/11/15 01:46:04;;;;;;;3.53;3.23;;;16.10;66.60;17.30;100106.00;;;;5007887;28;20172;-52
2022/11/15 01:48:33;;;;;;;3.47;3.17;;;16.10;66.60;17.20;100110.00;;;;4991159;28;20178;-51
2022/11/15 01:51:01;;;;;;;3.60;3.30;;;16.10;66.60;17.20;100109.00;;;;4974670;28;20260;-52
2022/11/15 01:53:26;;;;;;;3.30;3.00;;;16.10;66.70;17.20;100123.00;;;;4991507;28;20190;-50
2022/11/15 01:55:52;;;;;;;4.30;3.33;;;16.10;66.70;17.20;100115.00;;;;4976682;28;20184;-52
2022/11/15 01:58:18;;;;;;;3.60;3.30;;;16.10;66.60;17.20;100102.00;;;;4991434;28;20188;-52
2022/11/15 02:00:44;;;;;;;3.97;3.60;;;16.10;66.60;17.20;100103.00;;;;4994124;28;20180;-53
2022/11/15 02:03:09;;;;;;;3.40;3.10;;;16.10;66.70;17.20;100090.00;;;;4977587;28;20198;-53
2022/11/15 02:05:36;;;;;;;3.97;3.17;;;16.10;66.80;17.20;100079.00;;;;4993725;28;20190;-51
2022/11/15 02:08:01;;;;;;;3.90;3.50;;;16.10;66.80;17.20;100095.00;;;;4977891;28;20167;-51
2022/11/15 02:10:27;;;;;;;3.93;3.60;;;16.10;66.80;17.20;100095.00;;;;4977628;28;20629;-52
2022/11/15 02:12:53;;;;;;;4.83;3.43;;;16.10;67.00;17.20;100081.00;;;;5010998;28;20231;-50
2022/11/15 02:15:19;;;;;;;3.47;3.27;;;16.10;67.10;17.20;100070.00;;;;4977415;28;20195;-52
2022/11/15 02:17:59;;;;;;;3.60;3.30;;;16.10;67.00;17.20;100070.00;;;;4977586;28;20707;-52
2022/11/15 02:21:12;;;;;;;3.60;3.30;;;16.10;67.00;17.10;100066.00;;;;5011195;28;20735;-50
2022/11/15 02:24:04;;;;;;;3.70;3.40;;;16.00;66.90;17.10;100058.00;;;;5011031;28;20196;-52
2022/11/15 02:27:15;;;;;;;4.07;3.60;;;16.10;67.10;17.10;100065.00;;;;4993716;28;20188;-52
2022/11/15 02:30:18;;;;;;;3.50;3.20;;;16.10;67.10;17.10;100073.00;;;;4983145;28;20168;-53
2022/11/15 02:33:01;;;;;;;3.80;3.50;;;16.10;67.00;17.10;100060.00;;;;5010750;28;20155;-53
2022/11/15 02:35:52;;;;;;;3.70;3.40;;;16.00;66.90;17.10;100061.00;;;;4962157;28;20198;-50
2022/11/15 02:38:28;;;;;;;3.47;3.17;;;16.00;67.00;17.10;100046.00;;;;4993697;28;20694;-49
2022/11/15 02:41:04;;;;;;;3.80;3.50;;;16.00;67.00;17.10;100060.00;;;;4978578;28;20148;-50
2022/11/15 02:43:58;;;;;;;3.40;3.10;;;16.00;67.20;17.10;100057.00;;;;4993255;28;20529;-51
2022/11/15 02:47:15;;;;;;;3.90;3.50;;;16.00;67.30;17.10;100048.00;;;;4982267;28;20164;-50
2022/11/15 02:49:49;;;;;;;3.60;3.30;;;16.00;67.20;17.00;100060.00;;;;4985761;28;20183;-51
2022/11/15 02:52:21;;;;;;;3.50;3.20;;;16.00;67.20;17.00;100047.00;;;;4977338;28;20665;-53
2022/11/15 02:54:57;;;;;;;3.70;3.37;;;16.00;67.20;17.10;100045.00;;;;4991010;28;20695;-51
2022/11/15 02:57:58;;;;;;;3.40;3.10;;;16.00;67.20;17.10;100053.00;;;;4991225;28;20168;-51
2022/11/15 03:00:24;;;;;;;3.60;3.30;;;16.00;67.20;17.00;100046.00;;;;4974884;28;20255;-51
2022/11/15 03:03:25;;;;;;;3.70;3.40;;;16.00;67.20;17.00;100049.00;;;;4989466;28;20595;-54
2022/11/15 03:06:09;;;;;;;3.50;3.20;;;15.90;67.20;17.00;100047.00;;;;4989633;28;20307;-52
2022/11/15 03:09:09;;;;;;;3.70;3.40;;;15.90;67.20;17.00;100039.00;;;;4989390;28;20587;-51
2022/11/15 03:11:44;;;;;;;3.30;2.93;;;16.00;67.20;17.00;100044.00;;;;4989351;28;20623;-50
2022/11/15 03:14:34;;;;;;;3.23;3.03;;;15.90;67.20;17.00;100041.00;;;;4989324;28;20198;-51
2022/11/15 03:17:30;;;;;;;3.60;3.30;;;16.00;67.30;17.00;100035.00;;;;4989475;28;20232;-51
2022/11/15 03:19:58;;;;;;;3.43;3.13;;;15.90;67.20;17.00;100010.00;;;;4988392;28;20172;-52
2022/11/15 03:22:26;;;;;;;3.43;3.13;;;15.90;67.20;17.00;100036.00;;;;4988951;28;20282;-51
2022/11/15 03:24:58;;;;;;;3.53;3.23;;;16.00;67.40;17.00;100039.00;;;;4989100;28;20208;-50
2022/11/15 03:27:27;;;;;;;3.90;3.20;;;16.00;67.30;17.00;100033.00;;;;4989290;28;20180;-50
2022/11/15 03:29:57;;;;;;;3.20;2.97;;;16.00;68.20;17.10;100047.00;;;;4988947;28;20188;-51
2022/11/15 03:32:26;;;;;;;4.40;3.20;;;16.00;67.40;17.10;100037.00;;;;4988866;28;20175;-51
2022/11/15 03:34:53;;;;;;;4.20;3.23;;;16.00;67.40;17.10;100036.00;;;;4988759;28;20208;-51
2022/11/15 03:37:21;;;;;;;4.13;3.10;;;16.00;67.80;17.10;100032.00;;;;4990180;28;20212;-51
2022/11/15 03:39:47;;;;;;;5.07;3.30;;;16.00;67.50;17.10;100040.00;;;;4987355;28;20404;-53
2022/11/15 03:42:20;;;;;;;4.07;3.20;;;16.00;67.60;17.10;100042.00;;;;4987367;28;20225;-53
2022/11/15 03:45:22;;;;;;;4.80;3.10;;;16.00;67.60;17.10;100026.00;;;;4990065;28;20241;-52
2022/11/15 03:48:08;;;;;;;3.40;3.10;;;16.00;67.60;17.10;100028.00;;;;4988309;28;20148;-50
2022/11/15 03:50:34;;;;;;;3.50;3.13;;;16.00;67.60;17.10;100026.00;;;;4988700;28;20656;-52
2022/11/15 03:53:00;;;;;;;3.63;3.27;;;15.90;67.40;17.10;100024.00;;;;4987987;28;20208;-53
2022/11/15 03:55:25;;;;;;;4.30;3.10;;;16.00;67.60;17.10;100032.00;;;;4988090;28;20299;-51
2022/11/15 03:57:54;;;;;;;4.03;3.10;;;16.00;67.60;16.80;100026.00;;;;4989512;28;20183;-52
2022/11/15 04:00:20;;;;;;;3.27;2.97;;;15.90;67.40;17.10;100017.00;;;;4990548;28;20184;-51
2022/11/15 04:02:45;;;;;;;4.77;3.37;;;15.90;67.40;17.10;100025.00;;;;4989577;28;20199;-53
2022/11/15 04:05:11;;;;;;;3.60;3.30;;;15.90;67.60;17.00;100032.00;;;;4988607;28;20188;-52
2022/11/15 04:07:37;;;;;;;3.87;3.30;;;16.00;67.80;17.00;100030.00;;;;4988597;28;20169;-50
2022/11/15 04:10:03;;;;;;;3.73;3.43;;;15.90;67.70;17.00;100026.00;;;;4989966;28;20172;-52
2022/11/15 04:12:36;;;;;;;7.57;3.47;;;15.90;67.70;17.00;100025.00;;;;4989933;28;20184;-51
2022/11/15 04:15:13;;;;;;;3.50;3.20;;;15.90;67.70;17.00;100016.00;;;;4989482;28;20578;-51
2022/11/15 04:17:48;;;;;;;5.20;3.13;;;15.90;67.60;17.00;100017.00;;;;4988765;28;20458;-50
2022/11/15 04:26:25;;;;;;;3.30;3.00;;;15.90;67.70;17.00;100014.00;;;;4989484;28;20532;-52
2022/11/15 04:31:35;;;;;;;3.77;3.23;;;15.90;67.70;17.00;100008.00;;;;4989348;28;20330;-52
2022/11/15 04:34:00;;;;;;;4.00;3.30;;;15.90;67.70;17.00;99986.00;;;;4989432;28;20200;-50
2022/11/15 04:39:10;;;;;;;4.97;3.20;;;15.90;67.70;17.00;100003.00;;;;4989456;28;20184;-50
2022/11/15 04:41:36;;;;;;;6.43;3.43;;;15.90;68.00;17.00;99991.00;;;;4990115;28;20177;-51
2022/11/15 04:44:01;;;;;;;6.93;3.30;;;15.90;67.90;17.10;100009.00;;;;4971860;28;20316;-52
2022/11/15 04:46:27;;;;;;;4.57;3.40;;;15.90;68.00;17.10;100001.00;;;;4989406;28;20180;-51
2022/11/15 04:48:53;;;;;;;8.93;3.30;;;15.90;67.90;17.10;100004.00;;;;4990137;28;20176;-51
2022/11/15 04:51:19;;;;;;;4.53;3.10;;;15.90;67.90;17.10;100002.00;;;;4989860;28;20871;-51
2022/11/15 04:53:45;;;;;;;3.60;3.30;;;15.90;67.80;17.00;100009.00;;;;4989982;28;20239;-51
2022/11/15 04:56:10;;;;;;;5.40;3.63;;;15.90;68.00;17.00;100003.00;;;;4989460;28;20212;-50
2022/11/15 04:58:36;;;;;;;9.40;3.23;;;15.90;67.90;17.00;100004.00;;;;4989524;28;20578;-52
2022/11/15 05:01:09;;;;;;;3.90;3.30;;;15.90;67.90;17.00;100001.00;;;;4989256;28;20183;-51
2022/11/15 05:06:19;;;;;;;4.47;3.10;;;15.90;68.00;17.00;100007.00;;;;4996391;28;20171;-53
2022/11/15 05:08:45;;;;;;;4.50;3.20;;;15.90;68.00;17.00;100008.00;;;;4999336;28;20258;-53
2022/11/15 05:11:10;;;;;;;5.03;3.13;;;15.90;68.00;17.00;100000.00;;;;5008507;28;20187;-52
2022/11/15 05:13:36;;;;;;;5.20;3.47;;;15.80;67.90;17.00;100010.00;;;;5008826;28;20653;-50
2022/11/15 05:16:02;;;;;;;9.30;3.20;;;15.80;68.00;17.00;100003.00;;;;5008994;28;20180;-51
2022/11/15 05:18:27;;;;;;;11.70;3.87;;;15.80;68.00;17.00;100005.00;;;;5009283;28;20179;-51
2022/11/15 05:20:53;;;;;;;8.87;3.30;;;15.80;67.90;17.00;100016.00;;;;5008550;28;20182;-50
2022/11/15 05:23:19;;;;;;;6.80;3.33;;;15.90;68.00;17.00;100007.00;;;;5008305;28;20633;-51
2022/11/15 05:25:45;;;;;;;10.30;3.30;;;15.90;68.00;17.00;100013.00;;;;5008663;28;20180;-51
2022/11/15 05:28:10;;;;;;;4.97;3.30;;;15.90;68.10;17.00;100016.00;;;;5009255;28;20172;-52
2022/11/15 05:30:36;;;;;;;9.60;3.47;;;15.80;67.90;17.00;100000.00;;;;5008518;28;20183;-52
2022/11/15 05:33:02;;;;;;;6.10;3.40;;;15.90;68.20;17.00;99996.00;;;;5010036;28;20629;-51
2022/11/15 05:36:05;;;;;;;5.93;3.27;;;15.90;68.20;17.00;100001.00;;;;5012834;28;20196;-51
2022/11/15 05:38:30;;;;;;;5.63;3.33;;;15.80;68.20;16.90;100002.00;;;;4983218;28;20620;-52
2022/11/15 05:40:56;;;;;;;4.00;3.27;;;15.90;68.40;17.00;100016.00;;;;4995326;28;20175;-50
2022/11/15 05:43:22;;;;;;;5.87;3.60;;;15.80;68.30;17.00;100003.00;;;;5011835;28;20197;-51
2022/11/15 05:45:48;;;;;;;4.10;3.20;;;15.80;68.30;17.00;100001.00;;;;4995251;28;20199;-51
2022/11/15 05:48:13;;;;;;;5.77;3.20;;;15.80;68.30;17.00;100007.00;;;;5012790;28;20174;-53
2022/11/15 05:50:41;;;;;;;3.20;3.00;;;15.80;68.30;17.00;99998.00;;;;4994454;28;20262;-53
2022/11/15 05:53:07;;;;;;;3.93;3.20;;;15.80;68.30;17.00;99990.00;;;;4993149;28;20164;-51
2022/11/15 05:55:32;;;;;;;3.50;3.10;;;15.80;68.30;17.00;100010.00;;;;5012069;28;20214;-51
2022/11/15 05:57:58;;;;;;;4.73;3.20;;;15.80;68.30;17.00;100003.00;;;;5012666;28;20234;-52
2022/11/15 06:00:24;;;;;;;4.07;3.27;;;15.80;68.30;17.00;100003.00;;;;5012361;28;20596;-53
2022/11/15 06:02:49;;;;;;;4.47;3.03;;;15.80;68.30;17.00;100012.00;;;;5011394;28;20398;-52
2022/11/15 06:05:15;;;;;;;3.47;3.10;;;15.80;68.30;17.00;100014.00;;;;5012147;28;20191;-50
2022/11/15 06:07:41;;;;;;;3.80;3.00;;;15.80;68.30;17.00;100005.00;;;;5012274;28;20219;-52
2022/11/15 06:10:07;;;;;;;3.90;3.00;;;15.80;68.20;17.00;100006.00;;;;5012065;28;20179;-52
2022/11/15 06:12:33;;;;;;;3.27;2.83;;;15.80;68.20;17.00;100007.00;;;;5011474;28;20278;-52
2022/11/15 06:14:59;;;;;;;3.50;2.90;;;15.80;68.30;17.00;100017.00;;;;5012031;28;20255;-52
2022/11/15 06:17:24;;;;;;;3.93;3.10;;;15.80;68.40;17.00;100013.00;;;;5011766;28;20329;-51
2022/11/15 06:19:50;;;;;;;4.13;3.23;;;15.80;68.40;17.00;100012.00;;;;5011903;28;20652;-53
2022/11/15 06:22:16;;;;;;;5.37;3.00;;;15.80;68.40;17.00;100021.00;;;;4993762;28;20176;-52
2022/11/15 06:24:43;;;;;;;10.07;3.20;;;15.80;68.40;17.00;100026.00;;;;5011537;28;20493;-52
2022/11/15 06:27:10;;;;;;;3.67;3.07;;;15.70;68.30;17.00;100023.00;;;;5012117;28;20196;-51
2022/11/15 06:29:36;;;;;;;5.07;3.00;;;15.80;68.50;17.00;100034.00;;;;5011915;28;20594;-51
2022/11/15 06:32:02;;;;;;;7.27;3.30;;;15.70;68.30;16.90;100044.00;;;;5011268;28;20459;-53
2022/11/15 06:34:27;;;;;;;5.70;3.00;;;15.80;68.40;16.90;100036.00;;;;5011601;28;20200;-53
2022/11/15 06:36:53;;;;;;;5.17;2.80;;;15.80;68.50;17.00;100038.00;;;;5011597;28;20214;-52
2022/11/15 06:39:19;;;;;;;3.80;2.90;;;15.80;68.50;16.90;100044.00;;;;5011347;28;20175;-52
2022/11/15 06:41:45;;;;;;;3.33;2.77;;;15.70;68.40;16.90;100048.00;;;;5011261;28;20603;-53
2022/11/15 06:44:10;;;;;;;4.90;2.90;;;15.80;68.50;16.90;100050.00;;;;5011626;28;20208;-51
2022/11/15 06:46:36;;;;;;;3.47;2.80;;;15.70;68.40;16.90;100047.00;;;;5011858;28;20172;-50
2022/11/15 06:49:02;;;;;;;3.00;2.80;;;15.80;68.50;16.90;100042.00;;;;5011380;28;20214;-50
2022/11/15 06:51:27;;;;;;;2.90;2.70;;;15.80;68.50;16.90;100047.00;;;;5011461;28;20183;-53
2022/11/15 06:53:53;;;;;;;3.20;2.90;;;15.80;68.50;16.90;100053.00;;;;5011018;28;20203;-51
2022/11/15 06:56:19;;;;;;;2.70;2.50;;;15.70;68.40;16.90;100060.00;;;;4993721;28;20789;-53
2022/11/15 06:58:44;;;;;;;3.17;2.90;;;15.70;68.30;16.90;100067.00;;;;5011394;28;20258;-49
2022/11/15 07:01:11;;;;;;;3.07;2.80;;;15.80;68.50;16.90;100057.00;;;;5011090;28;20184;-52
2022/11/15 07:03:39;;;;;;;3.20;2.77;;;15.80;68.40;16.90;100058.00;;;;5010652;28;20239;-51
2022/11/15 07:06:05;;;;;;;4.10;2.90;;;15.70;68.40;16.90;100064.00;;;;5011182;28;20183;-52
2022/11/15 07:08:31;;;;;;;3.70;2.40;;;15.70;68.30;16.90;100057.00;;;;5010951;28;20176;-50
2022/11/15 07:11:01;;;;;;;2.63;2.43;;;15.70;68.30;16.90;100076.00;;;;5011054;28;20230;-51
2022/11/15 07:13:28;;;;;;;2.90;2.60;;;15.80;68.40;16.90;100076.00;;;;5010838;28;20199;-52
2022/11/15 07:15:53;;;;;;;2.80;2.40;;;15.70;68.30;16.90;100075.00;;;;5010932;28;20302;-51
2022/11/15 07:18:19;;;;;;;2.77;2.50;;;15.70;68.40;16.90;100081.00;;;;5010746;28;20179;-51
2022/11/15 07:20:45;;;;;;;2.40;2.30;;;15.70;68.40;16.90;100093.00;;;;5010736;28;20184;-52
2022/11/15 07:23:11;;;;;;;2.77;2.57;;;15.70;68.40;16.90;100096.00;;;;5010200;28;20196;-52
2022/11/15 07:25:36;;;;;;;2.80;2.60;;;15.70;68.30;16.90;100085.00;;;;5010528;28;20195;-51
2022/11/15 07:28:02;;;;;;;2.70;2.50;;;15.70;68.30;16.90;100096.00;;;;5011073;28;20176;-51
2022/11/15 07:30:28;;;;;;;2.60;2.40;;;15.70;68.30;16.90;100090.00;;;;5011554;28;20695;-53
2022/11/15 07:32:58;;;;;;;2.60;2.40;;;15.70;68.20;16.90;100103.00;;;;5010661;28;20259;-54
2022/11/15 07:35:24;;;;;;;4.00;2.40;;;15.70;68.20;16.90;100096.00;;;;5010981;28;20195;-53
2022/11/15 07:38:00;;;;;;;2.60;2.40;;;15.70;68.20;16.90;100109.00;;;;5011079;28;20190;-54
2022/11/15 07:40:31;;;;;;;2.57;2.37;;;15.70;68.20;16.90;100106.00;;;;4992858;28;20195;-54
2022/11/15 07:43:05;;;;;;;2.70;2.50;;;15.70;68.20;16.90;100095.00;;;;5009565;28;20570;-53
2022/11/15 07:45:33;;;;;;;2.67;2.47;;;15.60;68.90;16.80;100109.00;;;;5010286;28;20199;-53
2022/11/15 07:47:59;;;;;;;2.60;2.40;;;15.70;68.20;16.80;100118.00;;;;5010490;28;20172;-52
2022/11/15 07:50:25;;;;;;;2.40;2.20;;;15.70;68.10;16.80;100104.00;;;;5010480;28;20238;-52
2022/11/15 07:52:59;;;;;;;2.33;2.17;;;15.60;68.00;16.80;100104.00;;;;5009653;28;20176;-52
2022/11/15 07:55:27;;;;;;;2.80;2.60;;;15.60;68.00;16.80;100109.00;;;;5009503;28;20209;-53
2022/11/15 07:57:53;;;;;;;2.60;2.40;;;15.70;68.20;16.80;100103.00;;;;5009931;28;20541;-53
2022/11/15 08:00:19;;;;;;;2.47;2.27;;;15.60;68.00;16.80;100105.00;;;;5009857;28;20176;-53
2022/11/15 08:02:45;;;;;;;2.40;2.20;;;15.70;68.10;16.80;100115.00;;;;5009224;28;20186;-54
2022/11/15 08:05:11;;;;;;;2.47;2.27;;;15.70;68.90;16.80;100108.00;;;;5009819;28;20191;-53
2022/11/15 08:07:37;;;;;;;2.40;2.20;;;15.60;68.00;16.80;100114.00;;;;5009545;28;20241;-52
2022/11/15 08:10:05;;;;;;;2.50;2.30;;;15.70;68.00;16.80;100116.00;;;;5008939;28;20210;-52
2022/11/15 08:12:31;;;;;;;2.53;2.33;;;15.70;68.00;16.80;100109.00;;;;5009726;28;20636;-51
2022/11/15 08:14:57;;;;;;;2.40;2.20;;;15.60;68.70;16.80;100116.00;;;;5009814;28;20207;-52
2022/11/15 08:17:32;;;;;;;2.80;2.53;;;15.60;67.90;16.80;100103.00;;;;5087581;27;1223005;-51
2022/11/15 08:19:58;;;;;;;2.60;2.40;;;15.60;67.90;16.80;100110.00;;;;5107016;28;20830;-51
2022/11/15 08:22:24;;;;;;;2.50;2.30;;;15.60;68.00;16.80;100116.00;;;;5107814;28;20164;-52
2022/11/15 08:24:49;;;;;;;2.70;2.50;;;15.60;67.90;16.80;100107.00;;;;5096567;28;20200;-52
2022/11/15 08:27:15;;;;;;;2.40;2.20;;;15.60;68.00;16.80;100100.00;;;;5089202;28;20641;-55
2022/11/15 08:29:43;;;;;;;3.73;2.33;;;15.60;67.90;16.80;100113.00;;;;5087222;28;20165;-51
2022/11/15 08:32:09;;;;;;;3.90;2.40;;;15.60;67.90;16.80;100110.00;;;;5085735;28;20607;-52
2022/11/15 08:34:34;;;;;;;2.53;2.33;;;15.60;67.90;16.80;100110.00;;;;5086024;28;20185;-52
2022/11/15 08:37:00;;;;;;;2.73;2.47;;;15.60;67.90;16.70;100109.00;;;;5086213;28;20193;-50
2022/11/15 08:39:26;;;;;;;2.60;2.40;;;15.60;67.90;16.70;100103.00;;;;5083816;28;20173;-50
2022/11/15 08:41:51;;;;;;;2.20;2.10;;;15.60;67.90;16.70;100088.00;;;;5065516;28;20169;-52
2022/11/15 08:44:17;;;;;;;2.40;2.20;;;15.60;67.90;16.70;100096.00;;;;5065247;28;20193;-52
2022/11/15 08:46:46;;;;;;;3.03;2.30;;;15.60;68.00;16.70;100094.00;;;;5065855;28;20650;-51
2022/11/15 08:49:11;;;;;;;2.20;2.10;;;15.60;68.00;16.70;100096.00;;;;5065903;28;20358;-51
2022/11/15 08:51:37;;;;;;;2.17;2.07;;;15.60;67.90;16.70;100088.00;;;;5030994;28;20450;-52
2022/11/15 08:54:03;;;;;;;2.30;2.10;;;15.60;67.90;16.70;100093.00;;;;5064914;28;20185;-51
2022/11/15 08:56:28;;;;;;;2.27;2.07;;;15.60;67.90;16.70;100079.00;;;;5065658;28;20205;-50
2022/11/15 08:58:54;;;;;;;2.13;1.93;;;15.60;67.90;16.70;100083.00;;;;5065174;28;20535;-51
2022/11/15 09:01:20;;;;;;;2.50;2.30;;;15.60;67.90;16.70;100085.00;;;;5064879;28;20193;-54
2022/11/15 09:03:46;;;;;;;2.27;2.07;;;15.60;68.00;16.70;100070.00;;;;5064630;28;20839;-51
2022/11/15 09:06:12;;;;;;;2.20;2.10;;;15.60;67.90;16.70;100065.00;;;;5065341;28;20178;-51
2022/11/15 09:08:38;;;;;;;2.20;2.00;;;15.60;67.90;16.70;100068.00;;;;5065117;28;20182;-51
2022/11/15 09:11:08;;;;;;;2.10;2.00;;;15.60;67.90;16.70;100067.00;;;;5063589;28;20173;-51
2022/11/15 09:13:34;;;;;;;2.50;2.30;;;15.60;67.80;16.70;100081.00;;;;5045930;28;20215;-50
2022/11/15 09:16:00;;;;;;;2.30;2.10;;;15.60;67.80;16.70;100070.00;;;;5046128;28;20736;-50
2022/11/15 09:18:27;;;;;;;2.20;2.00;;;15.60;67.80;16.70;100060.00;;;;5065348;28;20173;-53
2022/11/15 09:20:56;;;;;;;2.00;1.90;;;15.60;67.80;16.70;100060.00;;;;5047466;28;20185;-53
2022/11/15 09:23:22;;;;;;;2.33;2.10;;;15.60;67.80;16.70;100059.00;;;;5065175;28;20166;-51
2022/11/15 09:25:48;;;;;;;3.30;2.10;;;15.60;67.80;16.70;100063.00;;;;5065162;28;20177;-52
2022/11/15 09:28:13;;;;;;;3.63;2.00;;;15.50;67.60;16.70;100074.00;;;;4992255;28;20744;-49
2022/11/15 09:30:39;;;;;;;3.43;2.27;;;15.50;67.70;16.50;100059.00;;;;5063590;28;20209;-52
2022/11/15 09:33:12;;;;;;;2.83;2.17;;;15.40;67.70;16.80;100067.00;;;;5034848;28;20182;-51
2022/11/15 09:35:38;;;;;;;3.10;2.10;;;15.40;67.80;16.80;100061.00;;;;5070465;28;20220;-51
2022/11/15 09:38:05;;;;;;;3.70;2.20;;;15.50;67.90;16.80;100063.00;;;;5053170;28;20170;-50
2022/11/15 09:40:31;;;;;;;3.40;2.40;;;15.50;67.80;16.80;100060.00;;;;5070972;28;20215;-52
2022/11/15 09:43:20;;;;;;;7.30;2.13;;;15.60;68.20;16.80;100058.00;;;;5056694;28;20192;-53
2022/11/15 09:46:16;;;;;;;4.70;2.20;;;15.70;68.30;16.80;100046.00;;;;5059420;28;20162;-52
2022/11/15 09:48:57;;;;;;;7.60;2.17;;;15.80;68.00;16.90;100023.00;;;;5057667;28;20537;-51
2022/11/15 09:51:46;;;;;;;8.93;2.50;;;15.90;67.80;16.90;100029.00;;;;5041100;28;20727;-51
2022/11/15 09:54:27;;;;;;;7.70;2.60;;;16.10;68.60;17.00;100029.00;;;;5053763;28;20604;-51
2022/11/15 09:56:53;;;;;;;5.33;2.20;;;16.20;68.80;17.10;100017.00;;;;5071472;28;20181;-50
2022/11/15 10:00:00;;;;;;;6.77;2.20;;;16.30;68.60;17.20;100011.00;;;;5053256;28;20536;-51
2022/11/15 10:03:09;;;;;;;3.77;2.50;;;16.40;68.40;17.30;99994.00;;;;5019460;28;20261;-53
2022/11/15 10:05:43;;;;;;;5.07;2.50;;;16.60;68.40;17.30;100004.00;;;;5054674;28;20235;-52
2022/11/15 10:08:31;;;;;;;5.20;2.10;;;16.70;68.50;17.40;99993.00;;;;5053788;28;20170;-50
2022/11/15 10:11:10;;;;;;;4.30;2.40;;;16.80;68.50;17.50;99997.00;;;;5071244;28;20170;-52
2022/11/15 10:13:41;;;;;;;4.17;2.23;;;16.80;68.40;17.50;99990.00;;;;5053210;28;20188;-52
2022/11/15 10:16:36;;;;;;;5.60;2.60;;;16.80;68.40;17.60;99981.00;;;;5052400;28;20208;-51
2022/11/15 10:20:03;;;;;;;4.63;2.20;;;16.90;68.40;17.70;99968.00;;;;5055644;28;20262;-52
2022/11/15 10:22:31;;;;;;;6.90;2.37;;;16.90;68.00;17.70;99947.00;;;;5044299;28;20209;-50
2022/11/15 10:25:12;;;;;;;5.00;2.40;;;16.90;67.90;17.70;99968.00;;;;5058457;28;20277;-51
2022/11/15 10:27:39;;;;;;;5.93;2.23;;;16.90;68.00;17.70;99974.00;;;;4999948;28;20174;-51
2022/11/15 10:30:16;;;;;;;4.23;2.10;;;16.90;67.90;17.80;99979.00;;;;5051033;28;20178;-51
2022/11/15 10:32:43;;;;;;;2.90;1.87;;;16.90;67.80;17.80;99968.00;;;;5033863;28;20755;-53
2022/11/15 10:35:29;;;;;;;3.57;1.90;;;17.00;68.70;17.80;99980.00;;;;5050261;28;20199;-51
2022/11/15 10:38:06;;;;;;;4.10;2.07;;;17.00;67.70;17.80;99961.00;;;;5032495;28;20531;-51
2022/11/15 10:40:32;;;;;;;4.43;2.10;;;17.00;67.30;17.90;99955.00;;;;5049029;28;20204;-51
2022/11/15 10:43:10;;;;;;;4.10;2.07;;;17.00;67.10;17.90;99948.00;;;;5049828;28;20167;-49
2022/11/15 10:45:36;;;;;;;3.80;2.17;;;16.90;66.60;17.90;99959.00;;;;5031907;28;20197;-51
2022/11/15 10:48:14;;;;;;;2.10;1.70;;;16.90;66.50;17.90;99953.00;;;;5060543;28;20685;-53
2022/11/15 10:50:44;;;;;;;4.07;2.00;;;17.00;66.20;17.90;99955.00;;;;5070489;28;20177;-50
2022/11/15 10:53:37;;;;;;;3.43;2.00;;;17.00;66.70;17.90;99963.00;;;;5052738;28;20162;-51
2022/11/15 10:56:06;;;;;;;5.07;2.17;;;17.00;66.20;17.90;99959.00;;;;5070014;28;20289;-52
2022/11/15 10:58:44;;;;;;;5.77;1.80;;;17.10;66.60;18.00;99944.00;;;;5069970;28;20177;-52
2022/11/15 11:01:13;;;;;;;2.50;1.93;;;17.10;66.30;18.00;99940.00;;;;5052843;28;20618;-54
2022/11/15 11:03:39;;;;;;;2.33;1.87;;;17.00;66.20;18.00;99935.00;;;;5069534;28;20174;-55
2022/11/15 11:06:16;;;;;;;2.73;1.80;;;17.00;65.60;18.00;99931.00;;;;5051824;28;20214;-51
2022/11/15 11:09:04;;;;;;;2.70;1.97;;;17.00;65.20;18.00;99933.00;;;;5051893;28;20668;-50
2022/11/15 11:11:51;;;;;;;2.97;1.87;;;17.00;64.70;18.00;99917.00;;;;5069449;28;20248;-51
2022/11/15 11:14:46;;;;;;;2.63;1.90;;;17.00;64.70;18.00;99927.00;;;;5069181;28;20780;-51
2022/11/15 11:17:30;;;;;;;3.10;1.93;;;17.00;64.70;18.00;99832.00;;;;5059259;28;20217;-52